KOAK/OAK METAR and TAF weather

Enter ICAO airport designator
Station Type Date Time Source
KOAK METAR 2022/01/29 00:53 UTC NOAA

KOAK 290053Z 32004KT 10SM SCT180 BKN220 14/08 A3023 RMK AO2 SLP238 T01390083


Station Type Date Time Source
KOAK Decoded METAR 2022/01/29 00:53 UTC NOAA

METRO OAKLAND INTERNATIONAL AIRPORT , CA, United States (KOAK) 37-43N 122-14W 26M
Jan 28, 2022 - 07:53 PM EST / 2022.01.29 0053 UTC
Wind: from the NW (320 degrees) at 5 MPH (4 KT):0
Visibility: 10 mile(s):0
Sky conditions: mostly cloudy
Temperature: 57.0 F (13.9 C)
Dew Point: 46.9 F (8.3 C)
Relative Humidity: 68%
Pressure (altimeter): 30.23 in. Hg (1023 hPa)
ob: KOAK 290053Z 32004KT 10SM SCT180 BKN220 14/08 A3023 RMK AO2 SLP238 T01390083
cycle: 1

Station Type Date Time Source
KOAK TAF 2022/01/28 18:42 UTC NOAA

TAF KOAK 281738Z 2818/2924 VRB04KT P6SM BKN200
FM282100 29006KT P6SM SCT200
FM290900 06003KT P6SM BKN200
FM292100 29006KT P6SM FEW200

Example: see airport list